KCDC/CDC METAR and TAF weather

Enter ICAO airport designator
Station Type Date Time Source
KCDC METAR 2019/08/19 07:53 UTC NOAA

KCDC 190753Z AUTO 21006KT 10SM -RA CLR 17/M02 A3013 RMK AO2 RAE0654B43 SLP118 P0000 T01671022


Station Type Date Time Source
KCDC Decoded METAR 2019/08/19 07:53 UTC NOAA

Station name not available
Aug 19, 2019 - 03:53 AM EDT / 2019.08.19 0753 UTC
Wind: from the SSW (210 degrees) at 7 MPH (6 KT):0
Visibility: 10 mile(s):0
Sky conditions: clear
Weather: light rain
Precipitation last hour: A trace
Temperature: 62.1 F (16.7 C)
Dew Point: 28.0 F (-2.2 C)
Relative Humidity: 27%
Pressure (altimeter): 30.13 in. Hg (1020 hPa)
ob: KCDC 190753Z AUTO 21006KT 10SM -RA CLR 17/M02 A3013 RMK AO2 RAE0654B43 SLP118 P0000 T01671022
cycle: 8

Station Type Date Time Source
KCDC TAF 2019/08/19 06:33 UTC NOAA

TAF KCDC 190530Z 1906/2006 17007KT P6SM SKC
FM191600 21010G18KT P6SM SKC
FM200300 20008KT P6SM SKC

Example: see airport list